sensor_id;sensor_type;location;lat;lon;timestamp;temperature;humidity
451;DHT22;212;48.748;9.174;2022-07-22T00:00:01;21.20;1.00
451;DHT22;212;48.748;9.174;2022-07-22T00:02:30;21.30;1.00
451;DHT22;212;48.748;9.174;2022-07-22T00:04:57;21.30;1.00
451;DHT22;212;48.748;9.174;2022-07-22T00:07:23;21.30;1.00
451;DHT22;212;48.748;9.174;2022-07-22T00:09:50;21.30;1.00
451;DHT22;212;48.748;9.174;2022-07-22T00:12:18;21.30;1.00
451;DHT22;212;48.748;9.174;2022-07-22T00:14:44;21.20;1.00
451;DHT22;212;48.748;9.174;2022-07-22T00:17:11;21.30;1.00
451;DHT22;212;48.748;9.174;2022-07-22T00:19:38;21.30;1.00
451;DHT22;212;48.748;9.174;2022-07-22T00:22:05;21.30;1.00
451;DHT22;212;48.748;9.174;2022-07-22T00:24:31;21.30;1.00
451;DHT22;212;48.748;9.174;2022-07-22T00:26:58;21.30;1.00
451;DHT22;212;48.748;9.174;2022-07-22T00:29:26;21.30;1.00
451;DHT22;212;48.748;9.174;2022-07-22T00:31:52;21.40;1.00
451;DHT22;212;48.748;9.174;2022-07-22T00:34:19;21.40;1.00
451;DHT22;212;48.748;9.174;2022-07-22T00:36:46;21.40;1.00
451;DHT22;212;48.748;9.174;2022-07-22T00:39:12;21.40;1.00
451;DHT22;212;48.748;9.174;2022-07-22T00:41:40;21.40;1.00
451;DHT22;212;48.748;9.174;2022-07-22T00:44:08;21.40;1.00
451;DHT22;212;48.748;9.174;2022-07-22T00:46:37;21.30;1.00
451;DHT22;212;48.748;9.174;2022-07-22T00:49:06;21.40;1.00
451;DHT22;212;48.748;9.174;2022-07-22T00:51:33;21.40;1.00
451;DHT22;212;48.748;9.174;2022-07-22T00:54:01;21.40;1.00
451;DHT22;212;48.748;9.174;2022-07-22T00:56:28;21.40;1.00
451;DHT22;212;48.748;9.174;2022-07-22T00:58:57;21.40;1.00
451;DHT22;212;48.748;9.174;2022-07-22T01:01:24;21.40;1.00
451;DHT22;212;48.748;9.174;2022-07-22T01:03:53;21.30;1.00
451;DHT22;212;48.748;9.174;2022-07-22T01:06:20;21.30;1.00
451;DHT22;212;48.748;9.174;2022-07-22T01:08:46;21.10;1.00
451;DHT22;212;48.748;9.174;2022-07-22T01:11:15;21.00;1.00
451;DHT22;212;48.748;9.174;2022-07-22T01:13:43;20.90;1.00
451;DHT22;212;48.748;9.174;2022-07-22T01:16:11;20.90;1.00
451;DHT22;212;48.748;9.174;2022-07-22T01:18:38;20.80;1.00
451;DHT22;212;48.748;9.174;2022-07-22T01:21:08;20.90;1.00
451;DHT22;212;48.748;9.174;2022-07-22T01:23:35;20.90;1.00
451;DHT22;212;48.748;9.174;2022-07-22T01:26:02;20.80;1.00
451;DHT22;212;48.748;9.174;2022-07-22T01:28:29;20.70;1.00
451;DHT22;212;48.748;9.174;2022-07-22T01:30:56;20.70;1.00
451;DHT22;212;48.748;9.174;2022-07-22T01:33:23;20.80;1.00
451;DHT22;212;48.748;9.174;2022-07-22T01:35:50;20.80;1.00
451;DHT22;212;48.748;9.174;2022-07-22T01:38:19;20.70;1.00
451;DHT22;212;48.748;9.174;2022-07-22T01:40:46;20.70;1.00
451;DHT22;212;48.748;9.174;2022-07-22T01:43:13;20.70;1.00
451;DHT22;212;48.748;9.174;2022-07-22T01:45:43;20.70;1.00
451;DHT22;212;48.748;9.174;2022-07-22T01:48:10;20.60;1.00
451;DHT22;212;48.748;9.174;2022-07-22T01:50:37;20.60;1.00
451;DHT22;212;48.748;9.174;2022-07-22T01:53:03;20.50;1.00
451;DHT22;212;48.748;9.174;2022-07-22T01:55:32;20.60;1.00
451;DHT22;212;48.748;9.174;2022-07-22T01:57:58;20.60;1.00
451;DHT22;212;48.748;9.174;2022-07-22T02:00:25;20.50;1.00
451;DHT22;212;48.748;9.174;2022-07-22T02:02:52;20.50;1.00
451;DHT22;212;48.748;9.174;2022-07-22T02:05:18;20.40;1.00
451;DHT22;212;48.748;9.174;2022-07-22T02:07:45;20.40;1.00
451;DHT22;212;48.748;9.174;2022-07-22T02:10:12;20.40;1.00
451;DHT22;212;48.748;9.174;2022-07-22T02:12:40;20.50;1.00
451;DHT22;212;48.748;9.174;2022-07-22T02:15:07;20.40;1.00
451;DHT22;212;48.748;9.174;2022-07-22T02:17:35;20.50;1.00
451;DHT22;212;48.748;9.174;2022-07-22T02:20:03;20.40;1.00
451;DHT22;212;48.748;9.174;2022-07-22T02:22:29;20.40;1.00
451;DHT22;212;48.748;9.174;2022-07-22T02:24:56;20.30;1.00
451;DHT22;212;48.748;9.174;2022-07-22T02:27:23;20.30;1.00
451;DHT22;212;48.748;9.174;2022-07-22T02:29:50;20.20;1.00
451;DHT22;212;48.748;9.174;2022-07-22T02:32:17;20.20;1.00
451;DHT22;212;48.748;9.174;2022-07-22T02:34:44;20.20;1.00
451;DHT22;212;48.748;9.174;2022-07-22T02:37:11;20.20;1.00
451;DHT22;212;48.748;9.174;2022-07-22T02:39:37;20.10;1.00
451;DHT22;212;48.748;9.174;2022-07-22T02:42:04;20.00;1.00
451;DHT22;212;48.748;9.174;2022-07-22T02:44:31;19.90;1.00
451;DHT22;212;48.748;9.174;2022-07-22T02:46:59;19.80;1.00
451;DHT22;212;48.748;9.174;2022-07-22T02:49:25;19.90;1.00
451;DHT22;212;48.748;9.174;2022-07-22T02:51:52;19.90;1.00
451;DHT22;212;48.748;9.174;2022-07-22T02:54:19;19.70;1.00
451;DHT22;212;48.748;9.174;2022-07-22T02:56:46;19.70;1.00
451;DHT22;212;48.748;9.174;2022-07-22T02:59:12;19.70;1.00
451;DHT22;212;48.748;9.174;2022-07-22T03:01:39;19.70;1.00
451;DHT22;212;48.748;9.174;2022-07-22T03:04:07;19.60;1.00
451;DHT22;212;48.748;9.174;2022-07-22T03:06:33;19.60;1.00
451;DHT22;212;48.748;9.174;2022-07-22T03:09:00;19.50;1.00
451;DHT22;212;48.748;9.174;2022-07-22T03:11:27;19.40;1.00
451;DHT22;212;48.748;9.174;2022-07-22T03:13:54;19.20;1.00
451;DHT22;212;48.748;9.174;2022-07-22T03:16:20;19.20;1.00
451;DHT22;212;48.748;9.174;2022-07-22T03:18:47;19.10;1.00
451;DHT22;212;48.748;9.174;2022-07-22T03:21:15;19.10;1.00
451;DHT22;212;48.748;9.174;2022-07-22T03:23:42;19.00;1.00
451;DHT22;212;48.748;9.174;2022-07-22T03:26:08;19.10;1.00
451;DHT22;212;48.748;9.174;2022-07-22T03:28:35;19.00;1.00
451;DHT22;212;48.748;9.174;2022-07-22T03:31:02;19.00;1.00
451;DHT22;212;48.748;9.174;2022-07-22T03:33:28;18.90;1.00
451;DHT22;212;48.748;9.174;2022-07-22T03:35:55;18.90;1.00
451;DHT22;212;48.748;9.174;2022-07-22T03:38:23;18.90;1.00
451;DHT22;212;48.748;9.174;2022-07-22T03:40:50;18.80;1.00
451;DHT22;212;48.748;9.174;2022-07-22T03:43:16;18.80;1.00
451;DHT22;212;48.748;9.174;2022-07-22T03:45:43;18.80;1.00
451;DHT22;212;48.748;9.174;2022-07-22T03:48:10;18.70;1.00
451;DHT22;212;48.748;9.174;2022-07-22T03:50:37;18.60;1.00
451;DHT22;212;48.748;9.174;2022-07-22T03:53:03;18.50;1.00
451;DHT22;212;48.748;9.174;2022-07-22T03:55:31;18.60;1.00
451;DHT22;212;48.748;9.174;2022-07-22T03:57:58;18.50;1.00
451;DHT22;212;48.748;9.174;2022-07-22T04:00:25;18.50;1.00
451;DHT22;212;48.748;9.174;2022-07-22T04:02:52;18.60;1.00
451;DHT22;212;48.748;9.174;2022-07-22T04:05:18;18.60;1.00
451;DHT22;212;48.748;9.174;2022-07-22T04:07:45;18.60;1.00
451;DHT22;212;48.748;9.174;2022-07-22T04:10:12;18.50;1.00
451;DHT22;212;48.748;9.174;2022-07-22T04:12:40;18.50;1.00
451;DHT22;212;48.748;9.174;2022-07-22T04:15:08;18.50;1.00
451;DHT22;212;48.748;9.174;2022-07-22T04:17:35;18.50;1.00
451;DHT22;212;48.748;9.174;2022-07-22T04:20:03;18.50;1.00
451;DHT22;212;48.748;9.174;2022-07-22T04:22:30;18.60;1.00
451;DHT22;212;48.748;9.174;2022-07-22T04:24:57;18.70;1.00
451;DHT22;212;48.748;9.174;2022-07-22T04:27:24;18.60;1.00
451;DHT22;212;48.748;9.174;2022-07-22T04:29:52;18.80;1.00
451;DHT22;212;48.748;9.174;2022-07-22T04:32:18;18.90;1.00
451;DHT22;212;48.748;9.174;2022-07-22T04:34:45;18.80;1.00
451;DHT22;212;48.748;9.174;2022-07-22T04:37:12;18.90;1.00
451;DHT22;212;48.748;9.174;2022-07-22T04:39:38;18.90;1.00
451;DHT22;212;48.748;9.174;2022-07-22T04:42:05;19.00;1.00
451;DHT22;212;48.748;9.174;2022-07-22T04:44:32;19.00;1.00
451;DHT22;212;48.748;9.174;2022-07-22T04:47:00;19.10;1.00
451;DHT22;212;48.748;9.174;2022-07-22T04:49:27;19.00;1.00
451;DHT22;212;48.748;9.174;2022-07-22T04:51:53;19.00;1.00
451;DHT22;212;48.748;9.174;2022-07-22T04:54:20;19.20;1.00
451;DHT22;212;48.748;9.174;2022-07-22T04:56:47;19.40;1.00
451;DHT22;212;48.748;9.174;2022-07-22T04:59:13;19.50;1.00
451;DHT22;212;48.748;9.174;2022-07-22T05:01:40;19.50;1.00
451;DHT22;212;48.748;9.174;2022-07-22T05:04:08;19.40;1.00
451;DHT22;212;48.748;9.174;2022-07-22T05:06:35;19.50;1.00
451;DHT22;212;48.748;9.174;2022-07-22T05:09:02;19.70;1.00
451;DHT22;212;48.748;9.174;2022-07-22T05:11:29;19.90;1.00
451;DHT22;212;48.748;9.174;2022-07-22T05:13:55;20.00;1.00
451;DHT22;212;48.748;9.174;2022-07-22T05:16:22;20.00;1.00
451;DHT22;212;48.748;9.174;2022-07-22T05:18:49;20.00;1.00
451;DHT22;212;48.748;9.174;2022-07-22T05:21:17;20.20;1.00
451;DHT22;212;48.748;9.174;2022-07-22T05:23:43;19.90;1.00
451;DHT22;212;48.748;9.174;2022-07-22T05:26:10;20.00;1.00
451;DHT22;212;48.748;9.174;2022-07-22T05:28:37;19.90;1.00
451;DHT22;212;48.748;9.174;2022-07-22T05:31:03;20.00;1.00
451;DHT22;212;48.748;9.174;2022-07-22T05:33:30;20.00;1.00
451;DHT22;212;48.748;9.174;2022-07-22T05:35:57;20.10;1.00
451;DHT22;212;48.748;9.174;2022-07-22T05:38:25;20.30;1.00
451;DHT22;212;48.748;9.174;2022-07-22T05:40:51;20.30;1.00
451;DHT22;212;48.748;9.174;2022-07-22T05:43:19;20.40;1.00
451;DHT22;212;48.748;9.174;2022-07-22T05:45:45;20.30;1.00
451;DHT22;212;48.748;9.174;2022-07-22T05:48:12;20.40;1.00
451;DHT22;212;48.748;9.174;2022-07-22T05:50:39;20.60;1.00
451;DHT22;212;48.748;9.174;2022-07-22T05:53:05;20.70;1.00
451;DHT22;212;48.748;9.174;2022-07-22T05:55:33;20.70;1.00
451;DHT22;212;48.748;9.174;2022-07-22T05:58:00;20.70;1.00
451;DHT22;212;48.748;9.174;2022-07-22T06:00:26;20.60;1.00
451;DHT22;212;48.748;9.174;2022-07-22T06:02:53;20.60;1.00
451;DHT22;212;48.748;9.174;2022-07-22T06:05:20;20.90;1.00
451;DHT22;212;48.748;9.174;2022-07-22T06:07:46;21.20;1.00
451;DHT22;212;48.748;9.174;2022-07-22T06:10:13;21.40;1.00
451;DHT22;212;48.748;9.174;2022-07-22T06:12:42;21.20;1.00
451;DHT22;212;48.748;9.174;2022-07-22T06:15:09;21.80;1.00
451;DHT22;212;48.748;9.174;2022-07-22T06:17:36;22.40;1.00
451;DHT22;212;48.748;9.174;2022-07-22T06:20:03;23.10;1.00
451;DHT22;212;48.748;9.174;2022-07-22T06:22:30;23.70;1.00
451;DHT22;212;48.748;9.174;2022-07-22T06:24:56;24.40;1.00
451;DHT22;212;48.748;9.174;2022-07-22T06:27:23;24.90;1.00
451;DHT22;212;48.748;9.174;2022-07-22T06:29:51;24.70;1.00
451;DHT22;212;48.748;9.174;2022-07-22T06:32:18;25.20;1.00
451;DHT22;212;48.748;9.174;2022-07-22T06:34:44;25.80;1.00
451;DHT22;212;48.748;9.174;2022-07-22T06:37:11;26.60;1.00
451;DHT22;212;48.748;9.174;2022-07-22T06:39:38;27.10;1.00
451;DHT22;212;48.748;9.174;2022-07-22T06:42:05;27.80;1.00
451;DHT22;212;48.748;9.174;2022-07-22T06:44:31;28.00;1.00
451;DHT22;212;48.748;9.174;2022-07-22T06:46:59;28.70;1.00
451;DHT22;212;48.748;9.174;2022-07-22T06:49:26;28.80;1.00
451;DHT22;212;48.748;9.174;2022-07-22T06:51:53;29.30;1.00
451;DHT22;212;48.748;9.174;2022-07-22T06:54:19;29.80;1.00
451;DHT22;212;48.748;9.174;2022-07-22T06:56:46;28.80;1.00
451;DHT22;212;48.748;9.174;2022-07-22T06:59:13;29.20;1.00
451;DHT22;212;48.748;9.174;2022-07-22T07:01:40;29.60;1.00
451;DHT22;212;48.748;9.174;2022-07-22T07:04:08;30.70;1.00
451;DHT22;212;48.748;9.174;2022-07-22T07:06:34;31.60;1.00
451;DHT22;212;48.748;9.174;2022-07-22T07:09:01;32.00;1.00
451;DHT22;212;48.748;9.174;2022-07-22T07:11:28;32.40;1.00
451;DHT22;212;48.748;9.174;2022-07-22T07:13:54;31.80;1.00
451;DHT22;212;48.748;9.174;2022-07-22T07:16:21;32.20;1.00
451;DHT22;212;48.748;9.174;2022-07-22T07:18:48;33.00;1.00
451;DHT22;212;48.748;9.174;2022-07-22T07:21:16;34.30;1.00
451;DHT22;212;48.748;9.174;2022-07-22T07:23:43;35.10;1.00
451;DHT22;212;48.748;9.174;2022-07-22T07:26:09;36.40;1.00
451;DHT22;212;48.748;9.174;2022-07-22T07:28:36;37.50;1.00
451;DHT22;212;48.748;9.174;2022-07-22T07:31:03;37.50;1.00
451;DHT22;212;48.748;9.174;2022-07-22T07:33:29;38.10;1.00
451;DHT22;212;48.748;9.174;2022-07-22T07:35:56;36.50;1.00
451;DHT22;212;48.748;9.174;2022-07-22T07:38:24;36.60;1.00
451;DHT22;212;48.748;9.174;2022-07-22T07:40:51;37.90;1.00
451;DHT22;212;48.748;9.174;2022-07-22T07:43:18;38.70;1.00
451;DHT22;212;48.748;9.174;2022-07-22T07:45:45;38.20;1.00
451;DHT22;212;48.748;9.174;2022-07-22T07:48:12;38.80;1.00
451;DHT22;212;48.748;9.174;2022-07-22T07:50:39;38.30;1.00
451;DHT22;212;48.748;9.174;2022-07-22T07:53:05;39.40;1.00
451;DHT22;212;48.748;9.174;2022-07-22T07:55:34;38.90;1.00
451;DHT22;212;48.748;9.174;2022-07-22T07:58:03;38.40;1.00
451;DHT22;212;48.748;9.174;2022-07-22T08:00:29;38.70;1.00
451;DHT22;212;48.748;9.174;2022-07-22T08:02:58;38.90;1.00
451;DHT22;212;48.748;9.174;2022-07-22T08:05:24;39.60;1.00
451;DHT22;212;48.748;9.174;2022-07-22T08:07:51;39.00;1.00
451;DHT22;212;48.748;9.174;2022-07-22T08:10:19;37.90;1.00
451;DHT22;212;48.748;9.174;2022-07-22T08:12:47;37.50;1.00
451;DHT22;212;48.748;9.174;2022-07-22T08:15:14;36.70;1.00
451;DHT22;212;48.748;9.174;2022-07-22T08:17:41;37.10;1.00
451;DHT22;212;48.748;9.174;2022-07-22T08:20:08;38.50;1.00
451;DHT22;212;48.748;9.174;2022-07-22T08:22:35;39.30;1.00
451;DHT22;212;48.748;9.174;2022-07-22T08:25:02;39.60;1.00
451;DHT22;212;48.748;9.174;2022-07-22T08:27:29;40.90;1.00
451;DHT22;212;48.748;9.174;2022-07-22T08:29:57;42.00;1.00
451;DHT22;212;48.748;9.174;2022-07-22T08:32:24;42.20;1.00
451;DHT22;212;48.748;9.174;2022-07-22T08:34:51;41.80;1.00
451;DHT22;212;48.748;9.174;2022-07-22T08:37:17;41.30;1.00
451;DHT22;212;48.748;9.174;2022-07-22T08:39:45;41.40;1.00
451;DHT22;212;48.748;9.174;2022-07-22T08:42:11;38.40;1.00
451;DHT22;212;48.748;9.174;2022-07-22T08:44:39;37.80;1.00
451;DHT22;212;48.748;9.174;2022-07-22T08:47:07;39.10;1.00
451;DHT22;212;48.748;9.174;2022-07-22T08:49:34;40.10;1.00
451;DHT22;212;48.748;9.174;2022-07-22T08:52:00;41.50;1.00
451;DHT22;212;48.748;9.174;2022-07-22T08:54:27;41.60;1.00
451;DHT22;212;48.748;9.174;2022-07-22T08:56:54;41.80;1.00
451;DHT22;212;48.748;9.174;2022-07-22T08:59:21;41.60;1.00
451;DHT22;212;48.748;9.174;2022-07-22T09:02:07;41.80;1.00
451;DHT22;212;48.748;9.174;2022-07-22T09:04:50;42.70;1.00
451;DHT22;212;48.748;9.174;2022-07-22T09:07:24;41.40;1.00
451;DHT22;212;48.748;9.174;2022-07-22T09:09:51;40.40;1.00
451;DHT22;212;48.748;9.174;2022-07-22T09:12:18;40.30;1.00
451;DHT22;212;48.748;9.174;2022-07-22T09:14:46;39.00;1.00
451;DHT22;212;48.748;9.174;2022-07-22T09:17:25;38.90;1.00
451;DHT22;212;48.748;9.174;2022-07-22T09:19:52;39.60;1.00
451;DHT22;212;48.748;9.174;2022-07-22T09:22:34;40.40;1.00
451;DHT22;212;48.748;9.174;2022-07-22T09:25:17;40.60;1.00
451;DHT22;212;48.748;9.174;2022-07-22T09:27:44;41.10;1.00
451;DHT22;212;48.748;9.174;2022-07-22T09:30:12;39.60;1.00
451;DHT22;212;48.748;9.174;2022-07-22T09:32:41;39.90;1.00
451;DHT22;212;48.748;9.174;2022-07-22T09:35:09;41.00;1.00
451;DHT22;212;48.748;9.174;2022-07-22T09:37:36;40.90;1.00
451;DHT22;212;48.748;9.174;2022-07-22T09:40:13;40.90;1.00
451;DHT22;212;48.748;9.174;2022-07-22T09:42:44;40.40;1.00
451;DHT22;212;48.748;9.174;2022-07-22T09:45:11;41.10;1.00
451;DHT22;212;48.748;9.174;2022-07-22T09:47:42;42.20;1.00
451;DHT22;212;48.748;9.174;2022-07-22T09:50:15;42.40;1.00
451;DHT22;212;48.748;9.174;2022-07-22T09:52:42;42.90;1.00
451;DHT22;212;48.748;9.174;2022-07-22T09:55:09;42.80;1.00
451;DHT22;212;48.748;9.174;2022-07-22T09:57:36;41.90;1.00
451;DHT22;212;48.748;9.174;2022-07-22T10:00:04;41.50;1.00
451;DHT22;212;48.748;9.174;2022-07-22T10:02:34;41.40;1.00
451;DHT22;212;48.748;9.174;2022-07-22T10:05:04;40.90;1.00
451;DHT22;212;48.748;9.174;2022-07-22T10:07:31;40.90;1.00
451;DHT22;212;48.748;9.174;2022-07-22T10:09:59;40.20;1.00
451;DHT22;212;48.748;9.174;2022-07-22T10:12:27;40.80;1.00
451;DHT22;212;48.748;9.174;2022-07-22T10:14:54;40.60;1.00
451;DHT22;212;48.748;9.174;2022-07-22T10:17:20;41.00;1.00
451;DHT22;212;48.748;9.174;2022-07-22T10:19:47;40.70;1.00
451;DHT22;212;48.748;9.174;2022-07-22T10:22:51;40.90;1.00
451;DHT22;212;48.748;9.174;2022-07-22T10:25:19;40.50;1.00
451;DHT22;212;48.748;9.174;2022-07-22T10:27:48;40.60;1.00
451;DHT22;212;48.748;9.174;2022-07-22T10:30:16;39.70;1.00
451;DHT22;212;48.748;9.174;2022-07-22T10:32:43;40.40;1.00
451;DHT22;212;48.748;9.174;2022-07-22T10:35:21;41.50;1.00
451;DHT22;212;48.748;9.174;2022-07-22T10:37:54;41.10;1.00
451;DHT22;212;48.748;9.174;2022-07-22T10:40:22;41.00;1.00
451;DHT22;212;48.748;9.174;2022-07-22T10:43:08;40.80;1.00
451;DHT22;212;48.748;9.174;2022-07-22T10:45:38;42.00;1.00
451;DHT22;212;48.748;9.174;2022-07-22T10:48:06;42.80;1.00
451;DHT22;212;48.748;9.174;2022-07-22T10:50:43;42.40;1.00
451;DHT22;212;48.748;9.174;2022-07-22T10:53:13;42.80;1.00
451;DHT22;212;48.748;9.174;2022-07-22T10:56:12;42.10;1.00
451;DHT22;212;48.748;9.174;2022-07-22T10:58:42;41.70;1.00
451;DHT22;212;48.748;9.174;2022-07-22T11:01:10;40.70;1.00
451;DHT22;212;48.748;9.174;2022-07-22T11:03:38;39.70;1.00
451;DHT22;212;48.748;9.174;2022-07-22T11:06:21;39.90;1.00
451;DHT22;212;48.748;9.174;2022-07-22T11:08:52;39.40;1.00
451;DHT22;212;48.748;9.174;2022-07-22T11:11:23;40.40;1.00
451;DHT22;212;48.748;9.174;2022-07-22T11:13:56;40.70;1.00
451;DHT22;212;48.748;9.174;2022-07-22T11:16:24;40.70;1.00
451;DHT22;212;48.748;9.174;2022-07-22T11:18:55;40.40;1.00
451;DHT22;212;48.748;9.174;2022-07-22T11:21:25;40.50;1.00
451;DHT22;212;48.748;9.174;2022-07-22T11:23:56;39.60;1.00
451;DHT22;212;48.748;9.174;2022-07-22T11:26:26;39.70;1.00
451;DHT22;212;48.748;9.174;2022-07-22T11:28:58;39.80;1.00
451;DHT22;212;48.748;9.174;2022-07-22T11:31:25;40.00;1.00
451;DHT22;212;48.748;9.174;2022-07-22T11:33:52;39.60;1.00
451;DHT22;212;48.748;9.174;2022-07-22T11:36:32;39.50;1.00
451;DHT22;212;48.748;9.174;2022-07-22T11:39:01;39.30;1.00
451;DHT22;212;48.748;9.174;2022-07-22T11:41:29;38.70;1.00
451;DHT22;212;48.748;9.174;2022-07-22T11:43:58;38.60;1.00
451;DHT22;212;48.748;9.174;2022-07-22T11:46:25;38.40;1.00
451;DHT22;212;48.748;9.174;2022-07-22T11:48:52;38.60;1.00
451;DHT22;212;48.748;9.174;2022-07-22T11:51:19;38.70;1.00
451;DHT22;212;48.748;9.174;2022-07-22T11:53:46;39.30;1.00
451;DHT22;212;48.748;9.174;2022-07-22T11:56:14;39.40;1.00
451;DHT22;212;48.748;9.174;2022-07-22T11:58:42;39.50;1.00
451;DHT22;212;48.748;9.174;2022-07-22T12:01:11;38.60;1.00
451;DHT22;212;48.748;9.174;2022-07-22T12:03:40;37.90;1.00
451;DHT22;212;48.748;9.174;2022-07-22T12:06:09;36.80;1.00
451;DHT22;212;48.748;9.174;2022-07-22T12:08:40;37.10;1.00
451;DHT22;212;48.748;9.174;2022-07-22T12:11:09;37.90;1.00
451;DHT22;212;48.748;9.174;2022-07-22T12:13:41;38.30;1.00
451;DHT22;212;48.748;9.174;2022-07-22T12:16:23;38.10;1.00
451;DHT22;212;48.748;9.174;2022-07-22T12:18:57;37.80;1.00
451;DHT22;212;48.748;9.174;2022-07-22T12:21:25;36.80;1.00
451;DHT22;212;48.748;9.174;2022-07-22T12:23:54;37.40;1.00
451;DHT22;212;48.748;9.174;2022-07-22T12:26:39;38.10;1.00
451;DHT22;212;48.748;9.174;2022-07-22T12:29:27;38.20;1.00
451;DHT22;212;48.748;9.174;2022-07-22T12:31:58;37.70;1.00
451;DHT22;212;48.748;9.174;2022-07-22T12:34:36;37.60;1.00
451;DHT22;212;48.748;9.174;2022-07-22T12:37:15;36.80;1.00
451;DHT22;212;48.748;9.174;2022-07-22T12:39:53;36.80;1.00
451;DHT22;212;48.748;9.174;2022-07-22T12:42:20;37.10;1.00
451;DHT22;212;48.748;9.174;2022-07-22T12:44:53;36.70;1.00
451;DHT22;212;48.748;9.174;2022-07-22T12:47:41;36.10;1.00
451;DHT22;212;48.748;9.174;2022-07-22T12:50:18;35.40;1.00
451;DHT22;212;48.748;9.174;2022-07-22T12:52:45;34.90;1.00
451;DHT22;212;48.748;9.174;2022-07-22T12:55:11;35.20;1.00
451;DHT22;212;48.748;9.174;2022-07-22T12:57:38;35.40;1.00
451;DHT22;212;48.748;9.174;2022-07-22T13:00:08;34.60;1.00
451;DHT22;212;48.748;9.174;2022-07-22T13:02:35;34.70;1.00
451;DHT22;212;48.748;9.174;2022-07-22T13:05:01;35.40;1.00
451;DHT22;212;48.748;9.174;2022-07-22T13:07:28;35.20;1.00
451;DHT22;212;48.748;9.174;2022-07-22T13:09:55;34.80;1.00
451;DHT22;212;48.748;9.174;2022-07-22T13:12:21;35.00;1.00
451;DHT22;212;48.748;9.174;2022-07-22T13:14:48;33.80;1.00
451;DHT22;212;48.748;9.174;2022-07-22T13:17:16;33.80;1.00
451;DHT22;212;48.748;9.174;2022-07-22T13:19:43;33.80;1.00
451;DHT22;212;48.748;9.174;2022-07-22T13:22:10;33.50;1.00
451;DHT22;212;48.748;9.174;2022-07-22T13:24:36;33.00;1.00
451;DHT22;212;48.748;9.174;2022-07-22T13:27:03;32.50;1.00
451;DHT22;212;48.748;9.174;2022-07-22T13:29:30;32.20;1.00
451;DHT22;212;48.748;9.174;2022-07-22T13:31:57;32.10;1.00
451;DHT22;212;48.748;9.174;2022-07-22T13:34:25;32.00;1.00
451;DHT22;212;48.748;9.174;2022-07-22T13:36:51;32.10;1.00
451;DHT22;212;48.748;9.174;2022-07-22T13:39:18;32.30;1.00
451;DHT22;212;48.748;9.174;2022-07-22T13:41:45;32.20;1.00
451;DHT22;212;48.748;9.174;2022-07-22T13:44:11;32.00;1.00
451;DHT22;212;48.748;9.174;2022-07-22T13:46:38;32.00;1.00
451;DHT22;212;48.748;9.174;2022-07-22T13:49:05;32.00;1.00
451;DHT22;212;48.748;9.174;2022-07-22T13:51:33;32.00;1.00
451;DHT22;212;48.748;9.174;2022-07-22T13:53:59;32.20;1.00
451;DHT22;212;48.748;9.174;2022-07-22T13:56:26;32.30;1.00
451;DHT22;212;48.748;9.174;2022-07-22T13:58:53;32.20;1.00
451;DHT22;212;48.748;9.174;2022-07-22T14:01:19;32.10;1.00
451;DHT22;212;48.748;9.174;2022-07-22T14:03:47;32.00;1.00
451;DHT22;212;48.748;9.174;2022-07-22T14:06:14;32.00;1.00
451;DHT22;212;48.748;9.174;2022-07-22T14:08:42;32.00;1.00
451;DHT22;212;48.748;9.174;2022-07-22T14:11:09;32.00;1.00
451;DHT22;212;48.748;9.174;2022-07-22T14:13:36;32.10;1.00
451;DHT22;212;48.748;9.174;2022-07-22T14:16:03;32.00;1.00
451;DHT22;212;48.748;9.174;2022-07-22T14:18:43;32.10;1.00
451;DHT22;212;48.748;9.174;2022-07-22T14:21:10;32.00;1.00
451;DHT22;212;48.748;9.174;2022-07-22T14:23:37;31.40;1.00
451;DHT22;212;48.748;9.174;2022-07-22T14:26:06;31.50;1.00
451;DHT22;212;48.748;9.174;2022-07-22T14:28:32;31.90;1.00
451;DHT22;212;48.748;9.174;2022-07-22T14:30:59;32.10;1.00
451;DHT22;212;48.748;9.174;2022-07-22T14:33:26;32.10;1.00
451;DHT22;212;48.748;9.174;2022-07-22T14:35:52;32.00;1.00
451;DHT22;212;48.748;9.174;2022-07-22T14:38:19;31.80;1.00
451;DHT22;212;48.748;9.174;2022-07-22T14:40:46;31.80;1.00
451;DHT22;212;48.748;9.174;2022-07-22T14:43:14;31.70;1.00
451;DHT22;212;48.748;9.174;2022-07-22T14:45:40;31.70;1.00
451;DHT22;212;48.748;9.174;2022-07-22T14:48:07;31.70;1.00
451;DHT22;212;48.748;9.174;2022-07-22T14:50:34;31.70;1.00
451;DHT22;212;48.748;9.174;2022-07-22T14:53:00;31.70;1.00
451;DHT22;212;48.748;9.174;2022-07-22T14:55:27;31.70;1.00
451;DHT22;212;48.748;9.174;2022-07-22T14:57:53;31.60;1.00
451;DHT22;212;48.748;9.174;2022-07-22T15:00:22;31.60;1.00
451;DHT22;212;48.748;9.174;2022-07-22T15:02:48;31.70;1.00
451;DHT22;212;48.748;9.174;2022-07-22T15:05:15;31.50;1.00
451;DHT22;212;48.748;9.174;2022-07-22T15:07:42;31.40;1.00
451;DHT22;212;48.748;9.174;2022-07-22T15:10:09;31.60;1.00
451;DHT22;212;48.748;9.174;2022-07-22T15:12:36;31.60;1.00
451;DHT22;212;48.748;9.174;2022-07-22T15:15:03;31.60;1.00
451;DHT22;212;48.748;9.174;2022-07-22T15:17:34;31.70;1.00
451;DHT22;212;48.748;9.174;2022-07-22T15:20:02;31.70;1.00
451;DHT22;212;48.748;9.174;2022-07-22T15:22:28;31.80;1.00
451;DHT22;212;48.748;9.174;2022-07-22T15:24:55;31.80;1.00
451;DHT22;212;48.748;9.174;2022-07-22T15:27:22;31.80;1.00
451;DHT22;212;48.748;9.174;2022-07-22T15:29:48;31.70;1.00
451;DHT22;212;48.748;9.174;2022-07-22T15:32:15;31.40;1.00
451;DHT22;212;48.748;9.174;2022-07-22T15:34:44;31.50;1.00
451;DHT22;212;48.748;9.174;2022-07-22T15:37:11;31.70;1.00
451;DHT22;212;48.748;9.174;2022-07-22T15:39:38;31.80;1.00
451;DHT22;212;48.748;9.174;2022-07-22T15:42:05;31.60;1.00
451;DHT22;212;48.748;9.174;2022-07-22T15:44:32;31.80;1.00
451;DHT22;212;48.748;9.174;2022-07-22T15:46:59;32.00;1.00
451;DHT22;212;48.748;9.174;2022-07-22T15:49:25;32.00;1.00
451;DHT22;212;48.748;9.174;2022-07-22T15:51:53;32.00;1.00
451;DHT22;212;48.748;9.174;2022-07-22T15:54:20;31.90;1.00
451;DHT22;212;48.748;9.174;2022-07-22T15:56:48;31.80;1.00
451;DHT22;212;48.748;9.174;2022-07-22T15:59:15;31.90;1.00
451;DHT22;212;48.748;9.174;2022-07-22T16:01:59;32.00;1.00
451;DHT22;212;48.748;9.174;2022-07-22T16:04:26;32.00;1.00
451;DHT22;212;48.748;9.174;2022-07-22T16:06:54;32.00;1.00
451;DHT22;212;48.748;9.174;2022-07-22T16:09:20;32.00;1.00
451;DHT22;212;48.748;9.174;2022-07-22T16:11:47;32.10;1.00
451;DHT22;212;48.748;9.174;2022-07-22T16:14:14;31.80;1.00
451;DHT22;212;48.748;9.174;2022-07-22T16:16:41;31.90;1.00
451;DHT22;212;48.748;9.174;2022-07-22T16:19:07;31.60;1.00
451;DHT22;212;48.748;9.174;2022-07-22T16:21:34;31.60;1.00
451;DHT22;212;48.748;9.174;2022-07-22T16:24:02;31.40;1.00
451;DHT22;212;48.748;9.174;2022-07-22T16:26:29;31.40;1.00
451;DHT22;212;48.748;9.174;2022-07-22T16:28:55;31.40;1.00
451;DHT22;212;48.748;9.174;2022-07-22T16:31:22;31.50;1.00
451;DHT22;212;48.748;9.174;2022-07-22T16:33:51;31.70;1.00
451;DHT22;212;48.748;9.174;2022-07-22T16:36:18;31.80;1.00
451;DHT22;212;48.748;9.174;2022-07-22T16:38:45;32.00;1.00
451;DHT22;212;48.748;9.174;2022-07-22T16:41:13;32.30;1.00
451;DHT22;212;48.748;9.174;2022-07-22T16:43:40;32.40;1.00
451;DHT22;212;48.748;9.174;2022-07-22T16:46:07;32.70;1.00
451;DHT22;212;48.748;9.174;2022-07-22T16:48:34;32.70;1.00
451;DHT22;212;48.748;9.174;2022-07-22T16:51:01;32.80;1.00
451;DHT22;212;48.748;9.174;2022-07-22T16:53:28;32.80;1.00
451;DHT22;212;48.748;9.174;2022-07-22T16:55:54;32.60;1.00